createdAt,value
2023-04-20T00:05:00.436Z,100089.97
2023-04-20T00:10:03.990Z,100087.63
2023-04-20T00:15:08.128Z,100074.56
2023-04-20T00:20:13.116Z,100084.91
2023-04-20T00:25:16.212Z,100072.22
2023-04-20T00:30:19.174Z,100075.63
2023-04-20T00:35:22.356Z,100080.13
2023-04-20T00:40:27.772Z,100082.41
2023-04-20T00:45:30.713Z,100077.72
2023-04-20T00:50:34.981Z,100077.59
2023-04-20T00:55:38.878Z,100075.22
2023-04-20T01:01:00.121Z,100069.50
2023-04-20T01:06:03.225Z,100067.97
2023-04-20T01:11:06.227Z,100049.97
2023-04-20T01:16:09.290Z,100057.22
2023-04-20T01:21:14.086Z,100055.63
2023-04-20T01:26:19.185Z,100051.38
2023-04-20T01:31:22.494Z,100050.94
2023-04-20T01:36:27.263Z,100042.09
2023-04-20T01:41:30.544Z,100046.25
2023-04-20T01:46:33.409Z,100035.19
2023-04-20T01:51:37.163Z,100034.47
2023-04-20T01:56:40.503Z,100032.97
2023-04-20T02:01:43.847Z,100036.44
2023-04-20T02:06:46.720Z,100039.44
2023-04-20T02:11:49.731Z,100044.69
2023-04-20T02:16:53.641Z,100046.56
2023-04-20T02:21:56.661Z,100039.19
2023-04-20T02:26:59.414Z,100033.00
2023-04-20T02:32:02.429Z,100024.91
2023-04-20T02:37:05.268Z,100036.41
2023-04-20T02:42:08.394Z,100032.59
2023-04-20T02:47:12.337Z,100028.47
2023-04-20T02:52:15.386Z,100024.28
2023-04-20T02:57:19.036Z,100021.75
2023-04-20T03:02:40.740Z,100025.31
2023-04-20T03:07:44.717Z,100023.56
2023-04-20T03:13:06.231Z,100009.00
2023-04-20T03:18:26.004Z,100007.53
2023-04-20T03:23:28.976Z,100015.53
2023-04-20T03:28:51.454Z,100017.13
2023-04-20T03:33:58.269Z,100016.00
2023-04-20T03:39:01.302Z,100009.09
2023-04-20T03:44:04.960Z,100005.31
2023-04-20T03:49:07.884Z,99998.91
2023-04-20T03:54:11.372Z,99997.09
2023-04-20T03:59:14.651Z,99994.88
2023-04-20T04:04:21.099Z,99996.84
2023-04-20T04:09:27.021Z,99993.81
2023-04-20T04:14:30.471Z,99991.56
2023-04-20T04:19:52.329Z,99983.84
2023-04-20T04:24:55.409Z,99987.28
2023-04-20T04:29:58.882Z,99980.69
2023-04-20T04:35:02.432Z,99973.28
2023-04-20T04:40:07.668Z,99966.25
2023-04-20T04:45:13.806Z,99976.50
2023-04-20T04:50:18.524Z,99964.41
2023-04-20T04:55:21.806Z,99967.28
2023-04-20T05:00:25.518Z,99967.19
2023-04-20T05:05:28.331Z,99958.41
2023-04-20T05:10:31.139Z,99956.28
2023-04-20T05:15:34.220Z,99955.63
2023-04-20T05:20:37.547Z,99952.94
2023-04-20T05:25:40.993Z,99939.03
2023-04-20T05:30:43.726Z,99944.31
2023-04-20T05:35:46.806Z,99934.44
2023-04-20T05:40:50.643Z,99937.94
2023-04-20T05:45:53.786Z,99939.09
2023-04-20T05:50:57.124Z,99941.94
2023-04-20T05:55:59.947Z,99928.84
2023-04-20T06:01:04.195Z,99936.03
2023-04-20T06:06:07.598Z,99925.03
2023-04-20T06:11:10.469Z,99925.47
2023-04-20T06:16:13.388Z,99922.91
2023-04-20T06:21:36.661Z,99917.53
2023-04-20T06:26:39.559Z,99918.53
2023-04-20T06:32:01.092Z,99913.72
2023-04-20T06:37:22.773Z,99917.13
2023-04-20T06:42:25.629Z,99906.72
2023-04-20T06:47:32.014Z,99900.44
2023-04-20T06:52:37.501Z,99889.09
2023-04-20T06:57:40.457Z,99885.22
2023-04-20T07:02:47.596Z,99876.94
2023-04-20T07:07:51.740Z,99873.47
2023-04-20T07:12:54.855Z,99863.44
2023-04-20T07:17:57.721Z,99860.97
2023-04-20T07:23:00.918Z,99857.34
2023-04-20T07:28:03.845Z,99849.22
2023-04-20T07:33:07.817Z,99846.66
2023-04-20T07:38:11.678Z,99847.28
2023-04-20T07:43:14.589Z,99843.38
2023-04-20T07:48:17.685Z,99845.41
2023-04-20T07:53:20.797Z,99848.81
2023-04-20T07:58:23.872Z,99843.06
2023-04-20T08:03:28.982Z,99836.09
2023-04-20T08:08:32.232Z,99837.78
2023-04-20T08:13:36.898Z,99830.75
2023-04-20T08:18:39.884Z,99832.63
2023-04-20T08:23:43.295Z,99838.22
2023-04-20T08:28:46.230Z,99831.44
2023-04-20T08:33:49.130Z,99825.56
2023-04-20T08:39:14.308Z,99827.69
2023-04-20T08:44:17.309Z,99813.28
2023-04-20T08:49:21.787Z,99806.59
2023-04-20T08:54:24.926Z,99799.16
2023-04-20T08:59:27.983Z,99786.41
2023-04-20T09:04:31.142Z,99795.19
2023-04-20T09:09:34.154Z,99787.59
2023-04-20T09:14:44.691Z,99783.22
2023-04-20T09:19:53.799Z,99763.91
2023-04-20T09:24:56.607Z,99753.59
2023-04-20T09:30:01.304Z,99757.53
2023-04-20T09:35:04.576Z,99747.88
2023-04-20T09:40:08.972Z,99755.88
2023-04-20T09:45:14.893Z,99747.34
2023-04-20T09:50:26.755Z,99753.41
2023-04-20T09:55:33.109Z,99739.81
2023-04-20T10:00:36.080Z,99728.63
2023-04-20T10:05:40.015Z,99731.09
2023-04-20T10:10:45.361Z,99716.69
2023-04-20T10:15:48.532Z,99709.28
2023-04-20T10:20:52.313Z,99710.72
2023-04-20T10:25:57.831Z,99706.91
2023-04-20T10:31:00.717Z,99703.16
2023-04-20T10:36:03.704Z,99701.69
2023-04-20T10:41:11.527Z,99706.56
2023-04-20T10:46:18.768Z,99695.72
2023-04-20T10:51:22.578Z,99688.91
2023-04-20T10:56:26.746Z,99674.19
2023-04-20T11:01:33.025Z,99666.84
2023-04-20T11:06:36.051Z,99663.03
2023-04-20T11:11:38.880Z,99650.34
2023-04-20T11:16:52.486Z,99647.78
2023-04-20T11:21:56.006Z,99641.75
2023-04-20T11:26:59.033Z,99641.13
2023-04-20T11:32:04.798Z,99636.78
2023-04-20T11:37:10.762Z,99635.53
2023-04-20T11:42:13.655Z,99633.19
2023-04-20T11:47:16.628Z,99622.72
2023-04-20T11:52:19.931Z,99607.00
2023-04-20T11:57:24.197Z,99592.63
2023-04-20T12:02:27.306Z,99593.22
2023-04-20T12:07:30.495Z,99584.38
2023-04-20T12:12:34.178Z,99582.59
2023-04-20T12:17:37.141Z,99578.28
2023-04-20T12:22:40.176Z,99569.22
2023-04-20T12:27:43.059Z,99558.63
2023-04-20T12:33:04.996Z,99558.22
2023-04-20T12:38:07.903Z,99555.56
2023-04-20T12:43:10.815Z,99546.09
2023-04-20T12:48:13.659Z,99544.44
2023-04-20T12:53:17.053Z,99537.06
2023-04-20T12:58:20.492Z,99537.91
2023-04-20T13:03:23.462Z,99534.69
2023-04-20T13:08:26.675Z,99524.00
2023-04-20T13:13:29.602Z,99525.06
2023-04-20T13:18:32.662Z,99524.72
2023-04-20T13:23:35.849Z,99518.28
2023-04-20T13:28:38.687Z,99519.59
2023-04-20T13:33:41.630Z,99511.44
2023-04-20T13:38:45.175Z,99507.09
2023-04-20T13:43:48.159Z,99509.72
2023-04-20T13:48:51.002Z,99495.28
2023-04-20T13:54:12.675Z,99497.69
2023-04-20T13:59:15.827Z,99481.41
2023-04-20T14:04:19.038Z,99483.50
2023-04-20T14:09:22.462Z,99484.72
2023-04-20T14:14:25.873Z,99474.09
2023-04-20T14:19:30.357Z,99470.09
2023-04-20T14:24:33.324Z,99471.06
2023-04-20T14:29:36.360Z,99474.03
2023-04-20T14:34:39.447Z,99467.34
2023-04-20T14:39:42.346Z,99462.81
2023-04-20T14:44:45.185Z,99453.41
2023-04-20T14:49:48.049Z,99445.16
2023-04-20T14:54:51.439Z,99443.66
2023-04-20T14:59:54.451Z,99440.84
2023-04-20T15:04:59.036Z,99441.47
2023-04-20T15:10:02.171Z,99451.06
2023-04-20T15:15:06.636Z,99460.53
2023-04-20T15:20:28.314Z,99463.28
2023-04-20T15:25:31.456Z,99466.63
2023-04-20T15:30:34.817Z,99468.31
2023-04-20T15:35:37.905Z,99478.63
2023-04-20T15:40:41.613Z,99480.22
2023-04-20T15:45:44.904Z,99480.91
2023-04-20T15:50:54.337Z,99479.00
2023-04-20T15:55:57.543Z,99477.34
2023-04-20T16:01:00.582Z,99470.72
2023-04-20T16:06:03.670Z,99467.41
2023-04-20T16:11:07.094Z,99463.47
2023-04-20T16:16:09.879Z,99468.00
2023-04-20T16:21:12.966Z,99465.00
2023-04-20T16:26:16.801Z,99474.81
2023-04-20T16:31:20.380Z,99482.50
2023-04-20T16:36:23.579Z,99475.97
2023-04-20T16:41:27.333Z,99466.88
2023-04-20T16:46:51.222Z,99474.75
2023-04-20T16:52:12.740Z,99473.50
2023-04-20T16:57:34.648Z,99467.44
2023-04-20T17:02:38.490Z,99473.31
2023-04-20T17:07:41.637Z,99463.31
2023-04-20T17:12:44.382Z,99461.19
2023-04-20T17:17:47.260Z,99461.91
2023-04-20T17:22:50.272Z,99452.00
2023-04-20T17:27:53.157Z,99453.81
2023-04-20T17:32:57.463Z,99454.22
2023-04-20T17:38:00.496Z,99447.50
2023-04-20T17:43:03.472Z,99444.00
2023-04-20T17:48:06.706Z,99437.28
2023-04-20T17:53:10.065Z,99444.81
2023-04-20T17:58:13.499Z,99449.63
2023-04-20T18:03:16.697Z,99433.88
2023-04-20T18:08:21.281Z,99434.66
2023-04-20T18:13:24.235Z,99440.97
2023-04-20T18:18:27.053Z,99442.28
2023-04-20T18:23:30.303Z,99445.75
2023-04-20T18:28:33.151Z,99451.31
2023-04-20T18:33:36.086Z,99452.06
2023-04-20T18:38:38.939Z,99449.81
2023-04-20T18:43:41.716Z,99456.44
2023-04-20T18:48:44.745Z,99444.06
2023-04-20T18:53:47.635Z,99444.94
2023-04-20T18:58:50.982Z,99445.63
2023-04-20T19:03:54.337Z,99440.31
2023-04-20T19:08:57.331Z,99443.59
2023-04-20T19:14:00.218Z,99442.84
2023-04-20T19:19:04.281Z,99428.94
2023-04-20T19:24:07.373Z,99440.63
2023-04-20T19:29:12.432Z,99438.78
2023-04-20T19:34:15.576Z,99427.41
2023-04-20T19:39:18.501Z,99429.47
2023-04-20T19:44:21.401Z,99428.84
2023-04-20T19:49:24.441Z,99436.59
2023-04-20T19:54:27.450Z,99430.72
2023-04-20T19:59:32.754Z,99432.16
2023-04-20T20:04:38.100Z,99427.50
2023-04-20T20:09:59.652Z,99417.63
2023-04-20T20:15:04.249Z,99432.50
2023-04-20T20:20:09.101Z,99422.84
2023-04-20T20:25:12.141Z,99426.66
2023-04-20T20:30:15.740Z,99419.03
2023-04-20T20:35:18.724Z,99412.84
2023-04-20T20:40:21.734Z,99407.00
2023-04-20T20:45:24.646Z,99413.75
2023-04-20T20:50:28.138Z,99421.34
2023-04-20T20:55:31.100Z,99422.19
2023-04-20T21:00:34.398Z,99413.84
2023-04-20T21:05:37.363Z,99410.59
2023-04-20T21:10:40.396Z,99408.53
2023-04-20T21:15:43.284Z,99404.31
2023-04-20T21:20:46.194Z,99412.25
2023-04-20T21:25:49.120Z,99406.94
2023-04-20T21:30:51.907Z,99401.72
2023-04-20T21:35:57.006Z,99393.56
2023-04-20T21:41:01.236Z,99387.19
2023-04-20T21:46:04.329Z,99383.81
2023-04-20T21:51:07.291Z,99384.00
2023-04-20T21:56:10.685Z,99370.25
2023-04-20T22:01:32.803Z,99367.63
2023-04-20T22:06:36.182Z,99369.69
2023-04-20T22:11:38.843Z,99365.91
2023-04-20T22:16:41.997Z,99365.25
2023-04-20T22:21:44.918Z,99365.34
2023-04-20T22:26:47.853Z,99355.72
2023-04-20T22:31:50.852Z,99346.16
2023-04-20T22:37:13.210Z,99348.50
2023-04-20T22:42:16.280Z,99339.97
2023-04-20T22:47:19.238Z,99337.91
2023-04-20T22:52:40.797Z,99334.84
2023-04-20T22:57:43.498Z,99336.22
2023-04-20T23:02:46.455Z,99332.88
2023-04-20T23:07:49.769Z,99333.94
2023-04-20T23:12:54.915Z,99323.72
2023-04-20T23:17:57.824Z,99326.41
2023-04-20T23:23:00.942Z,99321.06
2023-04-20T23:28:04.018Z,99317.72
2023-04-20T23:33:06.961Z,99323.53
2023-04-20T23:38:09.941Z,99325.19
2023-04-20T23:43:12.755Z,99318.00
2023-04-20T23:48:15.709Z,99308.69
2023-04-20T23:53:18.469Z,99305.22
2023-04-20T23:58:25.740Z,99313.34
